sensor_id;sensor_type;location;lat;lon;timestamp;P1;durP1;ratioP1;P2;durP2;ratioP2
11490;SDS011;5802;52.832;4.758;2023-05-03T00:01:15;1.58;;;0.70;;
11490;SDS011;5802;52.832;4.758;2023-05-03T00:03:42;1.33;;;0.75;;
11490;SDS011;5802;52.832;4.758;2023-05-03T00:06:11;2.40;;;0.80;;
11490;SDS011;5802;52.832;4.758;2023-05-03T00:08:39;3.58;;;0.90;;
11490;SDS011;5802;52.832;4.758;2023-05-03T00:11:06;2.03;;;0.70;;
11490;SDS011;5802;52.832;4.758;2023-05-03T00:13:34;2.13;;;0.75;;
11490;SDS011;5802;52.832;4.758;2023-05-03T00:16:01;1.77;;;0.70;;
11490;SDS011;5802;52.832;4.758;2023-05-03T00:18:28;1.27;;;0.70;;
11490;SDS011;5802;52.832;4.758;2023-05-03T00:20:56;1.20;;;0.80;;
11490;SDS011;5802;52.832;4.758;2023-05-03T00:23:25;1.58;;;0.70;;
11490;SDS011;5802;52.832;4.758;2023-05-03T00:25:53;1.80;;;0.70;;
11490;SDS011;5802;52.832;4.758;2023-05-03T00:28:20;1.83;;;0.82;;
11490;SDS011;5802;52.832;4.758;2023-05-03T00:30:46;1.20;;;0.70;;
11490;SDS011;5802;52.832;4.758;2023-05-03T00:33:14;4.63;;;1.05;;
11490;SDS011;5802;52.832;4.758;2023-05-03T00:35:41;4.13;;;0.77;;
11490;SDS011;5802;52.832;4.758;2023-05-03T00:38:08;0.85;;;0.60;;
11490;SDS011;5802;52.832;4.758;2023-05-03T00:40:36;1.30;;;0.77;;
11490;SDS011;5802;52.832;4.758;2023-05-03T00:43:02;1.20;;;0.80;;
11490;SDS011;5802;52.832;4.758;2023-05-03T00:45:30;0.82;;;0.47;;
11490;SDS011;5802;52.832;4.758;2023-05-03T00:47:59;1.20;;;0.80;;
11490;SDS011;5802;52.832;4.758;2023-05-03T00:50:26;0.93;;;0.70;;
11490;SDS011;5802;52.832;4.758;2023-05-03T00:52:54;1.25;;;0.60;;
11490;SDS011;5802;52.832;4.758;2023-05-03T00:55:21;1.63;;;0.95;;
11490;SDS011;5802;52.832;4.758;2023-05-03T00:57:51;1.88;;;0.90;;
11490;SDS011;5802;52.832;4.758;2023-05-03T01:00:18;1.08;;;0.70;;
11490;SDS011;5802;52.832;4.758;2023-05-03T01:02:46;1.48;;;0.50;;
11490;SDS011;5802;52.832;4.758;2023-05-03T01:05:13;1.73;;;0.85;;
11490;SDS011;5802;52.832;4.758;2023-05-03T01:07:43;1.00;;;0.60;;
11490;SDS011;5802;52.832;4.758;2023-05-03T01:10:18;0.85;;;0.57;;
11490;SDS011;5802;52.832;4.758;2023-05-03T01:12:54;0.95;;;0.60;;
11490;SDS011;5802;52.832;4.758;2023-05-03T01:15:28;1.02;;;0.60;;
11490;SDS011;5802;52.832;4.758;2023-05-03T01:18:05;0.90;;;0.55;;
11490;SDS011;5802;52.832;4.758;2023-05-03T01:20:36;1.02;;;0.60;;
11490;SDS011;5802;52.832;4.758;2023-05-03T01:23:04;3.25;;;0.70;;
11490;SDS011;5802;52.832;4.758;2023-05-03T01:25:37;1.17;;;0.70;;
11490;SDS011;5802;52.832;4.758;2023-05-03T01:28:04;1.35;;;0.70;;
11490;SDS011;5802;52.832;4.758;2023-05-03T01:30:30;1.15;;;0.70;;
11490;SDS011;5802;52.832;4.758;2023-05-03T01:33:00;0.63;;;0.60;;
11490;SDS011;5802;52.832;4.758;2023-05-03T01:35:40;0.95;;;0.60;;
11490;SDS011;5802;52.832;4.758;2023-05-03T01:38:17;1.05;;;0.73;;
11490;SDS011;5802;52.832;4.758;2023-05-03T01:40:47;2.35;;;0.70;;
11490;SDS011;5802;52.832;4.758;2023-05-03T01:43:16;0.82;;;0.50;;
11490;SDS011;5802;52.832;4.758;2023-05-03T01:45:44;1.90;;;0.75;;
11490;SDS011;5802;52.832;4.758;2023-05-03T01:48:13;1.40;;;0.55;;
11490;SDS011;5802;52.832;4.758;2023-05-03T01:50:41;1.75;;;0.60;;
11490;SDS011;5802;52.832;4.758;2023-05-03T01:53:08;1.38;;;0.60;;
11490;SDS011;5802;52.832;4.758;2023-05-03T01:55:35;1.02;;;0.60;;
11490;SDS011;5802;52.832;4.758;2023-05-03T01:58:03;1.05;;;0.50;;
11490;SDS011;5802;52.832;4.758;2023-05-03T02:00:30;1.60;;;0.65;;
11490;SDS011;5802;52.832;4.758;2023-05-03T02:02:57;0.90;;;0.65;;
11490;SDS011;5802;52.832;4.758;2023-05-03T02:05:23;1.05;;;0.50;;
11490;SDS011;5802;52.832;4.758;2023-05-03T02:07:50;0.55;;;0.50;;
11490;SDS011;5802;52.832;4.758;2023-05-03T02:10:17;1.00;;;0.60;;
11490;SDS011;5802;52.832;4.758;2023-05-03T02:12:44;1.08;;;0.70;;
11490;SDS011;5802;52.832;4.758;2023-05-03T02:15:12;0.75;;;0.52;;
11490;SDS011;5802;52.832;4.758;2023-05-03T02:17:39;0.68;;;0.40;;
11490;SDS011;5802;52.832;4.758;2023-05-03T02:20:07;0.95;;;0.50;;
11490;SDS011;5802;52.832;4.758;2023-05-03T02:22:34;1.20;;;0.73;;
11490;SDS011;5802;52.832;4.758;2023-05-03T02:25:01;1.05;;;0.60;;
11490;SDS011;5802;52.832;4.758;2023-05-03T02:27:29;0.88;;;0.60;;
11490;SDS011;5802;52.832;4.758;2023-05-03T02:29:55;0.63;;;0.50;;
11490;SDS011;5802;52.832;4.758;2023-05-03T02:32:23;0.63;;;0.50;;
11490;SDS011;5802;52.832;4.758;2023-05-03T02:34:50;0.80;;;0.45;;
11490;SDS011;5802;52.832;4.758;2023-05-03T02:37:17;1.45;;;0.60;;
11490;SDS011;5802;52.832;4.758;2023-05-03T02:39:43;0.60;;;0.47;;
11490;SDS011;5802;52.832;4.758;2023-05-03T02:42:10;0.60;;;0.52;;
11490;SDS011;5802;52.832;4.758;2023-05-03T02:44:37;1.10;;;0.60;;
11490;SDS011;5802;52.832;4.758;2023-05-03T02:47:03;0.52;;;0.43;;
11490;SDS011;5802;52.832;4.758;2023-05-03T02:49:31;2.53;;;0.63;;
11490;SDS011;5802;52.832;4.758;2023-05-03T02:51:58;0.93;;;0.50;;
11490;SDS011;5802;52.832;4.758;2023-05-03T02:54:25;0.30;;;0.30;;
11490;SDS011;5802;52.832;4.758;2023-05-03T02:56:51;0.47;;;0.40;;
11490;SDS011;5802;52.832;4.758;2023-05-03T02:59:18;1.13;;;0.60;;
11490;SDS011;5802;52.832;4.758;2023-05-03T03:01:45;0.85;;;0.50;;
11490;SDS011;5802;52.832;4.758;2023-05-03T03:04:12;1.02;;;0.55;;
11490;SDS011;5802;52.832;4.758;2023-05-03T03:06:41;0.65;;;0.50;;
11490;SDS011;5802;52.832;4.758;2023-05-03T03:09:10;2.15;;;0.70;;
11490;SDS011;5802;52.832;4.758;2023-05-03T03:11:37;0.50;;;0.40;;
11490;SDS011;5802;52.832;4.758;2023-05-03T03:14:04;1.20;;;0.50;;
11490;SDS011;5802;52.832;4.758;2023-05-03T03:16:31;0.50;;;0.50;;
11490;SDS011;5802;52.832;4.758;2023-05-03T03:18:57;1.33;;;0.60;;
11490;SDS011;5802;52.832;4.758;2023-05-03T03:21:25;0.82;;;0.40;;
11490;SDS011;5802;52.832;4.758;2023-05-03T03:23:54;0.95;;;0.55;;
11490;SDS011;5802;52.832;4.758;2023-05-03T03:26:21;0.70;;;0.52;;
11490;SDS011;5802;52.832;4.758;2023-05-03T03:28:48;0.60;;;0.40;;
11490;SDS011;5802;52.832;4.758;2023-05-03T03:31:15;1.38;;;0.55;;
11490;SDS011;5802;52.832;4.758;2023-05-03T03:33:42;0.57;;;0.40;;
11490;SDS011;5802;52.832;4.758;2023-05-03T03:36:08;0.70;;;0.52;;
11490;SDS011;5802;52.832;4.758;2023-05-03T03:38:35;0.63;;;0.35;;
11490;SDS011;5802;52.832;4.758;2023-05-03T03:41:03;0.75;;;0.60;;
11490;SDS011;5802;52.832;4.758;2023-05-03T03:43:30;0.82;;;0.60;;
11490;SDS011;5802;52.832;4.758;2023-05-03T03:45:57;0.70;;;0.43;;
11490;SDS011;5802;52.832;4.758;2023-05-03T03:48:23;0.95;;;0.50;;
11490;SDS011;5802;52.832;4.758;2023-05-03T03:50:52;0.60;;;0.40;;
11490;SDS011;5802;52.832;4.758;2023-05-03T03:53:19;0.75;;;0.30;;
11490;SDS011;5802;52.832;4.758;2023-05-03T03:55:45;0.30;;;0.30;;
11490;SDS011;5802;52.832;4.758;2023-05-03T03:58:13;1.00;;;0.50;;
11490;SDS011;5802;52.832;4.758;2023-05-03T04:00:40;0.70;;;0.50;;
11490;SDS011;5802;52.832;4.758;2023-05-03T04:03:07;0.68;;;0.60;;
11490;SDS011;5802;52.832;4.758;2023-05-03T04:05:34;1.25;;;0.38;;
11490;SDS011;5802;52.832;4.758;2023-05-03T04:08:00;1.25;;;0.50;;
11490;SDS011;5802;52.832;4.758;2023-05-03T04:10:27;1.15;;;0.60;;
11490;SDS011;5802;52.832;4.758;2023-05-03T04:12:54;1.85;;;0.43;;
11490;SDS011;5802;52.832;4.758;2023-05-03T04:15:22;4.32;;;0.60;;
11490;SDS011;5802;52.832;4.758;2023-05-03T04:17:48;1.05;;;0.60;;
11490;SDS011;5802;52.832;4.758;2023-05-03T04:20:15;1.23;;;0.50;;
11490;SDS011;5802;52.832;4.758;2023-05-03T04:22:43;2.35;;;0.73;;
11490;SDS011;5802;52.832;4.758;2023-05-03T04:25:10;2.28;;;0.52;;
11490;SDS011;5802;52.832;4.758;2023-05-03T04:27:38;1.00;;;0.50;;
11490;SDS011;5802;52.832;4.758;2023-05-03T04:30:05;0.50;;;0.50;;
11490;SDS011;5802;52.832;4.758;2023-05-03T04:32:34;3.70;;;0.52;;
11490;SDS011;5802;52.832;4.758;2023-05-03T04:35:02;0.95;;;0.60;;
11490;SDS011;5802;52.832;4.758;2023-05-03T04:37:29;0.68;;;0.43;;
11490;SDS011;5802;52.832;4.758;2023-05-03T04:39:56;0.68;;;0.45;;
11490;SDS011;5802;52.832;4.758;2023-05-03T04:42:23;1.35;;;0.70;;
11490;SDS011;5802;52.832;4.758;2023-05-03T04:44:50;0.90;;;0.52;;
11490;SDS011;5802;52.832;4.758;2023-05-03T04:47:17;1.95;;;0.80;;
11490;SDS011;5802;52.832;4.758;2023-05-03T04:49:45;1.55;;;0.70;;
11490;SDS011;5802;52.832;4.758;2023-05-03T04:52:12;1.77;;;0.85;;
11490;SDS011;5802;52.832;4.758;2023-05-03T04:54:39;0.50;;;0.43;;
11490;SDS011;5802;52.832;4.758;2023-05-03T04:57:06;0.50;;;0.50;;
11490;SDS011;5802;52.832;4.758;2023-05-03T04:59:34;2.55;;;0.50;;
11490;SDS011;5802;52.832;4.758;2023-05-03T05:02:00;0.43;;;0.40;;
11490;SDS011;5802;52.832;4.758;2023-05-03T05:04:27;0.55;;;0.55;;
11490;SDS011;5802;52.832;4.758;2023-05-03T05:06:55;1.27;;;0.60;;
11490;SDS011;5802;52.832;4.758;2023-05-03T05:09:23;0.80;;;0.40;;
11490;SDS011;5802;52.832;4.758;2023-05-03T05:11:51;0.85;;;0.50;;
11490;SDS011;5802;52.832;4.758;2023-05-03T05:14:18;0.73;;;0.50;;
11490;SDS011;5802;52.832;4.758;2023-05-03T05:16:45;0.52;;;0.52;;
11490;SDS011;5802;52.832;4.758;2023-05-03T05:19:12;0.93;;;0.63;;
11490;SDS011;5802;52.832;4.758;2023-05-03T05:21:38;0.55;;;0.43;;
11490;SDS011;5802;52.832;4.758;2023-05-03T05:24:07;0.32;;;0.20;;
11490;SDS011;5802;52.832;4.758;2023-05-03T05:26:34;0.40;;;0.40;;
11490;SDS011;5802;52.832;4.758;2023-05-03T05:29:00;0.82;;;0.40;;
11490;SDS011;5802;52.832;4.758;2023-05-03T05:31:27;1.58;;;0.60;;
11490;SDS011;5802;52.832;4.758;2023-05-03T05:33:54;0.85;;;0.50;;
11490;SDS011;5802;52.832;4.758;2023-05-03T05:36:20;1.40;;;0.63;;
11490;SDS011;5802;52.832;4.758;2023-05-03T05:38:47;0.57;;;0.50;;
11490;SDS011;5802;52.832;4.758;2023-05-03T05:41:15;1.15;;;0.40;;
11490;SDS011;5802;52.832;4.758;2023-05-03T05:43:42;0.60;;;0.47;;
11490;SDS011;5802;52.832;4.758;2023-05-03T05:46:09;0.57;;;0.30;;
11490;SDS011;5802;52.832;4.758;2023-05-03T05:48:36;0.82;;;0.40;;
11490;SDS011;5802;52.832;4.758;2023-05-03T05:51:03;1.33;;;0.40;;
11490;SDS011;5802;52.832;4.758;2023-05-03T05:53:30;0.82;;;0.50;;
11490;SDS011;5802;52.832;4.758;2023-05-03T05:55:56;0.65;;;0.40;;
11490;SDS011;5802;52.832;4.758;2023-05-03T05:58:25;0.77;;;0.50;;
11490;SDS011;5802;52.832;4.758;2023-05-03T06:00:51;1.70;;;0.70;;
11490;SDS011;5802;52.832;4.758;2023-05-03T06:03:19;1.02;;;0.40;;
11490;SDS011;5802;52.832;4.758;2023-05-03T06:05:46;1.33;;;0.80;;
11490;SDS011;5802;52.832;4.758;2023-05-03T06:08:13;2.55;;;0.75;;
11490;SDS011;5802;52.832;4.758;2023-05-03T06:10:39;6.60;;;0.65;;
11490;SDS011;5802;52.832;4.758;2023-05-03T06:13:07;1.05;;;0.60;;
11490;SDS011;5802;52.832;4.758;2023-05-03T06:15:35;1.70;;;0.57;;
11490;SDS011;5802;52.832;4.758;2023-05-03T06:18:01;3.85;;;0.50;;
11490;SDS011;5802;52.832;4.758;2023-05-03T06:20:28;2.53;;;0.70;;
11490;SDS011;5802;52.832;4.758;2023-05-03T06:22:55;2.20;;;0.70;;
11490;SDS011;5802;52.832;4.758;2023-05-03T06:25:22;1.60;;;0.60;;
11490;SDS011;5802;52.832;4.758;2023-05-03T06:27:48;2.08;;;0.70;;
11490;SDS011;5802;52.832;4.758;2023-05-03T06:30:15;0.60;;;0.50;;
11490;SDS011;5802;52.832;4.758;2023-05-03T06:32:45;1.02;;;0.50;;
11490;SDS011;5802;52.832;4.758;2023-05-03T06:35:14;1.70;;;0.63;;
11490;SDS011;5802;52.832;4.758;2023-05-03T06:37:43;1.77;;;0.68;;
11490;SDS011;5802;52.832;4.758;2023-05-03T06:40:10;6.80;;;0.70;;
11490;SDS011;5802;52.832;4.758;2023-05-03T06:42:37;0.68;;;0.50;;
11490;SDS011;5802;52.832;4.758;2023-05-03T06:45:04;1.33;;;0.52;;
11490;SDS011;5802;52.832;4.758;2023-05-03T06:47:32;1.27;;;0.68;;
11490;SDS011;5802;52.832;4.758;2023-05-03T06:50:00;1.83;;;0.60;;
11490;SDS011;5802;52.832;4.758;2023-05-03T06:52:26;0.98;;;0.55;;
11490;SDS011;5802;52.832;4.758;2023-05-03T06:54:53;0.82;;;0.50;;
11490;SDS011;5802;52.832;4.758;2023-05-03T06:57:20;1.58;;;0.52;;
11490;SDS011;5802;52.832;4.758;2023-05-03T06:59:46;1.83;;;0.60;;
11490;SDS011;5802;52.832;4.758;2023-05-03T07:02:13;2.60;;;0.60;;
11490;SDS011;5802;52.832;4.758;2023-05-03T07:04:40;1.13;;;0.55;;
11490;SDS011;5802;52.832;4.758;2023-05-03T07:07:08;1.90;;;0.50;;
11490;SDS011;5802;52.832;4.758;2023-05-03T07:09:34;1.23;;;0.52;;
11490;SDS011;5802;52.832;4.758;2023-05-03T07:12:03;1.33;;;0.50;;
11490;SDS011;5802;52.832;4.758;2023-05-03T07:14:30;1.70;;;0.70;;
11490;SDS011;5802;52.832;4.758;2023-05-03T07:16:56;0.68;;;0.55;;
11490;SDS011;5802;52.832;4.758;2023-05-03T07:19:23;2.22;;;0.70;;
11490;SDS011;5802;52.832;4.758;2023-05-03T07:21:50;0.47;;;0.40;;
11490;SDS011;5802;52.832;4.758;2023-05-03T07:24:18;0.60;;;0.50;;
11490;SDS011;5802;52.832;4.758;2023-05-03T07:26:45;2.60;;;0.47;;
11490;SDS011;5802;52.832;4.758;2023-05-03T07:29:11;1.98;;;0.60;;
11490;SDS011;5802;52.832;4.758;2023-05-03T07:31:38;0.90;;;0.43;;
11490;SDS011;5802;52.832;4.758;2023-05-03T07:34:05;0.80;;;0.68;;
11490;SDS011;5802;52.832;4.758;2023-05-03T07:36:31;0.88;;;0.50;;
11490;SDS011;5802;52.832;4.758;2023-05-03T07:38:58;2.15;;;0.60;;
11490;SDS011;5802;52.832;4.758;2023-05-03T07:41:26;0.75;;;0.60;;
11490;SDS011;5802;52.832;4.758;2023-05-03T07:43:53;0.70;;;0.50;;
11490;SDS011;5802;52.832;4.758;2023-05-03T07:46:19;1.05;;;0.50;;
11490;SDS011;5802;52.832;4.758;2023-05-03T07:48:47;1.60;;;0.52;;
11490;SDS011;5802;52.832;4.758;2023-05-03T07:51:13;3.42;;;0.75;;
11490;SDS011;5802;52.832;4.758;2023-05-03T07:53:40;1.65;;;0.70;;
11490;SDS011;5802;52.832;4.758;2023-05-03T07:56:08;1.95;;;0.70;;
11490;SDS011;5802;52.832;4.758;2023-05-03T07:58:36;3.33;;;1.10;;
11490;SDS011;5802;52.832;4.758;2023-05-03T08:01:03;1.15;;;0.60;;
11490;SDS011;5802;52.832;4.758;2023-05-03T08:03:29;5.25;;;0.98;;
11490;SDS011;5802;52.832;4.758;2023-05-03T08:05:56;2.58;;;0.90;;
11490;SDS011;5802;52.832;4.758;2023-05-03T08:08:23;2.08;;;0.80;;
11490;SDS011;5802;52.832;4.758;2023-05-03T08:10:51;2.88;;;0.80;;
11490;SDS011;5802;52.832;4.758;2023-05-03T08:13:17;3.92;;;0.70;;
11490;SDS011;5802;52.832;4.758;2023-05-03T08:15:47;0.68;;;0.47;;
11490;SDS011;5802;52.832;4.758;2023-05-03T08:18:14;4.00;;;0.68;;
11490;SDS011;5802;52.832;4.758;2023-05-03T08:20:41;2.15;;;0.65;;
11490;SDS011;5802;52.832;4.758;2023-05-03T08:23:08;2.80;;;0.50;;
11490;SDS011;5802;52.832;4.758;2023-05-03T08:25:35;3.17;;;0.70;;
11490;SDS011;5802;52.832;4.758;2023-05-03T08:28:03;1.70;;;0.63;;
11490;SDS011;5802;52.832;4.758;2023-05-03T08:30:31;2.15;;;0.52;;
11490;SDS011;5802;52.832;4.758;2023-05-03T08:32:59;1.70;;;0.77;;
11490;SDS011;5802;52.832;4.758;2023-05-03T08:35:25;1.92;;;0.40;;
11490;SDS011;5802;52.832;4.758;2023-05-03T08:37:52;0.85;;;0.50;;
11490;SDS011;5802;52.832;4.758;2023-05-03T08:40:19;1.50;;;0.70;;
11490;SDS011;5802;52.832;4.758;2023-05-03T08:42:47;1.30;;;0.65;;
11490;SDS011;5802;52.832;4.758;2023-05-03T08:45:14;1.45;;;0.70;;
11490;SDS011;5802;52.832;4.758;2023-05-03T08:47:42;1.92;;;0.63;;
11490;SDS011;5802;52.832;4.758;2023-05-03T08:50:11;1.10;;;0.47;;
11490;SDS011;5802;52.832;4.758;2023-05-03T08:52:38;0.93;;;0.60;;
11490;SDS011;5802;52.832;4.758;2023-05-03T08:55:06;1.02;;;0.52;;
11490;SDS011;5802;52.832;4.758;2023-05-03T08:57:34;0.80;;;0.50;;
11490;SDS011;5802;52.832;4.758;2023-05-03T09:00:01;2.33;;;0.50;;
11490;SDS011;5802;52.832;4.758;2023-05-03T09:02:30;0.50;;;0.50;;
11490;SDS011;5802;52.832;4.758;2023-05-03T09:04:58;0.90;;;0.50;;
11490;SDS011;5802;52.832;4.758;2023-05-03T09:07:26;1.38;;;0.50;;
11490;SDS011;5802;52.832;4.758;2023-05-03T09:09:53;1.38;;;0.45;;
11490;SDS011;5802;52.832;4.758;2023-05-03T09:12:34;1.60;;;0.75;;
11490;SDS011;5802;52.832;4.758;2023-05-03T09:15:02;0.68;;;0.47;;
11490;SDS011;5802;52.832;4.758;2023-05-03T09:17:30;1.00;;;0.52;;
11490;SDS011;5802;52.832;4.758;2023-05-03T09:19:57;0.52;;;0.50;;
11490;SDS011;5802;52.832;4.758;2023-05-03T09:22:26;1.85;;;0.65;;
11490;SDS011;5802;52.832;4.758;2023-05-03T09:24:56;0.80;;;0.50;;
11490;SDS011;5802;52.832;4.758;2023-05-03T09:27:25;1.63;;;0.63;;
11490;SDS011;5802;52.832;4.758;2023-05-03T09:29:52;1.35;;;0.50;;
11490;SDS011;5802;52.832;4.758;2023-05-03T09:32:20;4.05;;;1.00;;
11490;SDS011;5802;52.832;4.758;2023-05-03T09:34:48;2.08;;;0.43;;
11490;SDS011;5802;52.832;4.758;2023-05-03T09:37:16;3.17;;;0.68;;
11490;SDS011;5802;52.832;4.758;2023-05-03T09:39:45;0.93;;;0.50;;
11490;SDS011;5802;52.832;4.758;2023-05-03T09:42:13;2.78;;;0.95;;
11490;SDS011;5802;52.832;4.758;2023-05-03T09:44:40;0.98;;;0.70;;
11490;SDS011;5802;52.832;4.758;2023-05-03T09:47:08;4.15;;;1.08;;
11490;SDS011;5802;52.832;4.758;2023-05-03T09:49:36;4.65;;;1.00;;
11490;SDS011;5802;52.832;4.758;2023-05-03T09:52:03;2.40;;;1.00;;
11490;SDS011;5802;52.832;4.758;2023-05-03T09:54:31;2.78;;;0.80;;
11490;SDS011;5802;52.832;4.758;2023-05-03T09:57:03;3.63;;;0.80;;
11490;SDS011;5802;52.832;4.758;2023-05-03T09:59:30;2.28;;;0.90;;
11490;SDS011;5802;52.832;4.758;2023-05-03T10:01:58;2.45;;;1.02;;
11490;SDS011;5802;52.832;4.758;2023-05-03T10:04:27;2.78;;;0.90;;
11490;SDS011;5802;52.832;4.758;2023-05-03T10:06:58;2.58;;;1.08;;
11490;SDS011;5802;52.832;4.758;2023-05-03T10:09:30;3.25;;;1.30;;
11490;SDS011;5802;52.832;4.758;2023-05-03T10:12:03;3.00;;;1.20;;
11490;SDS011;5802;52.832;4.758;2023-05-03T10:14:33;2.45;;;1.10;;
11490;SDS011;5802;52.832;4.758;2023-05-03T10:17:01;3.72;;;1.20;;
11490;SDS011;5802;52.832;4.758;2023-05-03T10:19:32;3.25;;;1.10;;
11490;SDS011;5802;52.832;4.758;2023-05-03T10:22:03;2.75;;;1.20;;
11490;SDS011;5802;52.832;4.758;2023-05-03T10:24:31;1.42;;;0.88;;
11490;SDS011;5802;52.832;4.758;2023-05-03T10:26:58;3.75;;;1.38;;
11490;SDS011;5802;52.832;4.758;2023-05-03T10:32:27;6.13;;;1.10;;
11490;SDS011;5802;52.832;4.758;2023-05-03T10:34:55;1.70;;;1.00;;
11490;SDS011;5802;52.832;4.758;2023-05-03T10:37:25;3.80;;;1.05;;
11490;SDS011;5802;52.832;4.758;2023-05-03T10:39:52;2.85;;;1.30;;
11490;SDS011;5802;52.832;4.758;2023-05-03T10:42:20;2.97;;;1.10;;
11490;SDS011;5802;52.832;4.758;2023-05-03T10:44:52;6.10;;;0.90;;
11490;SDS011;5802;52.832;4.758;2023-05-03T10:47:21;2.97;;;1.17;;
11490;SDS011;5802;52.832;4.758;2023-05-03T10:52:46;3.22;;;1.10;;
11490;SDS011;5802;52.832;4.758;2023-05-03T10:55:14;2.47;;;1.13;;
11490;SDS011;5802;52.832;4.758;2023-05-03T10:57:43;1.23;;;0.85;;
11490;SDS011;5802;52.832;4.758;2023-05-03T11:00:13;1.40;;;0.90;;
11490;SDS011;5802;52.832;4.758;2023-05-03T11:02:46;3.40;;;1.00;;
11490;SDS011;5802;52.832;4.758;2023-05-03T11:05:33;2.75;;;0.88;;
11490;SDS011;5802;52.832;4.758;2023-05-03T11:08:07;3.28;;;1.02;;
11490;SDS011;5802;52.832;4.758;2023-05-03T11:10:34;1.70;;;1.00;;
11490;SDS011;5802;52.832;4.758;2023-05-03T11:13:03;1.58;;;0.88;;
11490;SDS011;5802;52.832;4.758;2023-05-03T11:15:32;1.88;;;0.95;;
11490;SDS011;5802;52.832;4.758;2023-05-03T11:17:58;3.22;;;1.13;;
11490;SDS011;5802;52.832;4.758;2023-05-03T11:20:25;2.25;;;1.10;;
11490;SDS011;5802;52.832;4.758;2023-05-03T11:22:52;3.05;;;0.95;;
11490;SDS011;5802;52.832;4.758;2023-05-03T11:25:18;3.08;;;0.85;;
11490;SDS011;5802;52.832;4.758;2023-05-03T11:27:45;2.03;;;0.90;;
11490;SDS011;5802;52.832;4.758;2023-05-03T11:30:12;2.75;;;0.80;;
11490;SDS011;5802;52.832;4.758;2023-05-03T11:32:40;1.83;;;1.10;;
11490;SDS011;5802;52.832;4.758;2023-05-03T11:35:08;1.83;;;0.93;;
11490;SDS011;5802;52.832;4.758;2023-05-03T11:37:35;3.10;;;1.13;;
11490;SDS011;5802;52.832;4.758;2023-05-03T11:40:02;3.15;;;0.90;;
11490;SDS011;5802;52.832;4.758;2023-05-03T11:42:30;2.22;;;1.10;;
11490;SDS011;5802;52.832;4.758;2023-05-03T11:44:57;1.95;;;1.17;;
11490;SDS011;5802;52.832;4.758;2023-05-03T11:47:25;1.33;;;1.00;;
11490;SDS011;5802;52.832;4.758;2023-05-03T11:49:54;2.53;;;1.17;;
11490;SDS011;5802;52.832;4.758;2023-05-03T11:52:22;1.95;;;1.10;;
11490;SDS011;5802;52.832;4.758;2023-05-03T11:54:49;1.40;;;1.00;;
11490;SDS011;5802;52.832;4.758;2023-05-03T11:57:17;1.75;;;1.00;;
11490;SDS011;5802;52.832;4.758;2023-05-03T11:59:45;1.10;;;1.00;;
11490;SDS011;5802;52.832;4.758;2023-05-03T12:02:14;2.10;;;0.98;;
11490;SDS011;5802;52.832;4.758;2023-05-03T12:04:41;4.40;;;1.48;;
11490;SDS011;5802;52.832;4.758;2023-05-03T12:07:10;3.30;;;1.08;;
11490;SDS011;5802;52.832;4.758;2023-05-03T12:09:38;1.88;;;1.00;;
11490;SDS011;5802;52.832;4.758;2023-05-03T12:12:05;2.20;;;1.00;;
11490;SDS011;5802;52.832;4.758;2023-05-03T12:17:31;3.25;;;1.02;;
11490;SDS011;5802;52.832;4.758;2023-05-03T12:20:12;2.67;;;1.10;;
11490;SDS011;5802;52.832;4.758;2023-05-03T12:22:41;5.10;;;1.30;;
11490;SDS011;5802;52.832;4.758;2023-05-03T12:25:08;1.98;;;1.08;;
11490;SDS011;5802;52.832;4.758;2023-05-03T12:27:35;3.05;;;1.20;;
11490;SDS011;5802;52.832;4.758;2023-05-03T12:30:01;2.53;;;1.08;;
11490;SDS011;5802;52.832;4.758;2023-05-03T12:32:29;4.50;;;1.15;;
11490;SDS011;5802;52.832;4.758;2023-05-03T12:34:55;2.80;;;1.05;;
11490;SDS011;5802;52.832;4.758;2023-05-03T12:37:22;3.42;;;1.20;;
11490;SDS011;5802;52.832;4.758;2023-05-03T12:39:50;1.02;;;0.60;;
11490;SDS011;5802;52.832;4.758;2023-05-03T12:42:16;2.30;;;1.00;;
11490;SDS011;5802;52.832;4.758;2023-05-03T12:44:43;4.85;;;1.27;;
11490;SDS011;5802;52.832;4.758;2023-05-03T12:47:12;2.28;;;1.00;;
11490;SDS011;5802;52.832;4.758;2023-05-03T12:49:39;1.85;;;0.90;;
11490;SDS011;5802;52.832;4.758;2023-05-03T12:52:06;1.27;;;0.93;;
11490;SDS011;5802;52.832;4.758;2023-05-03T12:54:33;1.85;;;1.10;;
11490;SDS011;5802;52.832;4.758;2023-05-03T12:57:02;1.77;;;1.10;;
11490;SDS011;5802;52.832;4.758;2023-05-03T12:59:28;3.03;;;1.00;;
11490;SDS011;5802;52.832;4.758;2023-05-03T13:01:55;2.33;;;1.05;;
11490;SDS011;5802;52.832;4.758;2023-05-03T13:04:22;1.52;;;1.00;;
11490;SDS011;5802;52.832;4.758;2023-05-03T13:06:49;3.00;;;1.00;;
11490;SDS011;5802;52.832;4.758;2023-05-03T13:09:17;2.42;;;1.15;;
11490;SDS011;5802;52.832;4.758;2023-05-03T13:11:43;4.13;;;1.20;;
11490;SDS011;5802;52.832;4.758;2023-05-03T13:14:15;3.00;;;1.00;;
11490;SDS011;5802;52.832;4.758;2023-05-03T13:16:42;2.30;;;0.90;;
11490;SDS011;5802;52.832;4.758;2023-05-03T13:19:09;2.10;;;1.00;;
11490;SDS011;5802;52.832;4.758;2023-05-03T13:21:36;2.63;;;1.17;;
11490;SDS011;5802;52.832;4.758;2023-05-03T13:24:03;2.65;;;1.45;;
11490;SDS011;5802;52.832;4.758;2023-05-03T13:26:30;4.20;;;1.33;;
11490;SDS011;5802;52.832;4.758;2023-05-03T13:28:57;5.28;;;1.20;;
11490;SDS011;5802;52.832;4.758;2023-05-03T13:31:25;1.38;;;1.02;;
11490;SDS011;5802;52.832;4.758;2023-05-03T13:33:54;1.60;;;1.13;;
11490;SDS011;5802;52.832;4.758;2023-05-03T13:36:21;2.97;;;1.15;;
11490;SDS011;5802;52.832;4.758;2023-05-03T13:38:48;2.13;;;1.10;;
11490;SDS011;5802;52.832;4.758;2023-05-03T13:41:15;1.60;;;1.20;;
11490;SDS011;5802;52.832;4.758;2023-05-03T13:43:42;5.47;;;1.20;;
11490;SDS011;5802;52.832;4.758;2023-05-03T13:46:09;2.80;;;1.10;;
11490;SDS011;5802;52.832;4.758;2023-05-03T13:48:38;3.53;;;1.10;;
11490;SDS011;5802;52.832;4.758;2023-05-03T13:51:08;2.33;;;1.20;;
11490;SDS011;5802;52.832;4.758;2023-05-03T13:53:35;1.75;;;1.10;;
11490;SDS011;5802;52.832;4.758;2023-05-03T13:56:02;1.88;;;1.00;;
11490;SDS011;5802;52.832;4.758;2023-05-03T13:58:30;3.15;;;1.02;;
11490;SDS011;5802;52.832;4.758;2023-05-03T14:00:59;2.03;;;1.20;;
11490;SDS011;5802;52.832;4.758;2023-05-03T14:03:25;5.38;;;1.08;;
11490;SDS011;5802;52.832;4.758;2023-05-03T14:05:53;4.10;;;1.27;;
11490;SDS011;5802;52.832;4.758;2023-05-03T14:08:20;2.35;;;1.15;;
11490;SDS011;5802;52.832;4.758;2023-05-03T14:10:47;3.10;;;0.90;;
11490;SDS011;5802;52.832;4.758;2023-05-03T14:13:14;2.90;;;1.20;;
11490;SDS011;5802;52.832;4.758;2023-05-03T14:15:41;1.67;;;1.10;;
11490;SDS011;5802;52.832;4.758;2023-05-03T14:18:09;2.38;;;1.20;;
11490;SDS011;5802;52.832;4.758;2023-05-03T14:20:36;2.72;;;1.17;;
11490;SDS011;5802;52.832;4.758;2023-05-03T14:23:04;3.72;;;1.35;;
11490;SDS011;5802;52.832;4.758;2023-05-03T14:25:31;6.47;;;1.40;;
11490;SDS011;5802;52.832;4.758;2023-05-03T14:27:57;4.88;;;1.13;;
11490;SDS011;5802;52.832;4.758;2023-05-03T14:30:24;4.78;;;1.05;;
11490;SDS011;5802;52.832;4.758;2023-05-03T14:32:51;2.50;;;1.05;;
11490;SDS011;5802;52.832;4.758;2023-05-03T14:35:17;4.65;;;1.30;;
11490;SDS011;5802;52.832;4.758;2023-05-03T14:37:44;4.82;;;1.00;;
11490;SDS011;5802;52.832;4.758;2023-05-03T14:40:13;1.92;;;0.98;;
11490;SDS011;5802;52.832;4.758;2023-05-03T14:42:41;1.27;;;0.90;;
11490;SDS011;5802;52.832;4.758;2023-05-03T14:45:08;2.45;;;0.85;;
11490;SDS011;5802;52.832;4.758;2023-05-03T14:47:38;1.38;;;0.80;;
11490;SDS011;5802;52.832;4.758;2023-05-03T14:50:05;1.25;;;0.70;;
11490;SDS011;5802;52.832;4.758;2023-05-03T14:52:33;5.78;;;1.05;;
11490;SDS011;5802;52.832;4.758;2023-05-03T14:55:00;2.17;;;1.00;;
11490;SDS011;5802;52.832;4.758;2023-05-03T14:57:29;5.68;;;1.10;;
11490;SDS011;5802;52.832;4.758;2023-05-03T14:59:58;4.30;;;1.20;;
11490;SDS011;5802;52.832;4.758;2023-05-03T15:02:25;5.40;;;1.25;;
11490;SDS011;5802;52.832;4.758;2023-05-03T15:04:52;1.85;;;1.00;;
11490;SDS011;5802;52.832;4.758;2023-05-03T15:07:19;0.93;;;0.73;;
11490;SDS011;5802;52.832;4.758;2023-05-03T15:09:46;1.80;;;0.80;;
11490;SDS011;5802;52.832;4.758;2023-05-03T15:12:12;1.48;;;0.85;;